Time;durP1;ratioP1;P1;durP2;ratioP2;P2;SDS_P1;SDS_P2;PMS_P1;PMS_P2;Temp;Humidity;BMP_temperature;BMP_pressure;BME280_temperature;BME280_humidity;BME280_pressure;Samples;Min_cycle;Max_cycle;Signal;HPM_P1;HPM_P2
2024/02/25 00:00:00;;;;;;;;;;;22.30;36.00;;;;;;5073996;28;20366;-64
2024/02/25 00:02:27;;;;;;;;;;;22.30;36.10;;;;;;5074130;28;19924;-64
2024/02/25 00:04:54;;;;;;;;;;;22.30;36.10;;;;;;5074157;28;19931;-64
2024/02/25 00:07:20;;;;;;;;;;;22.30;36.10;;;;;;5074088;28;19928;-64
2024/02/25 00:09:47;;;;;;;;;;;22.30;36.20;;;;;;5074298;28;19929;-65
2024/02/25 00:12:14;;;;;;;;;;;22.30;36.20;;;;;;5073942;28;20357;-64
2024/02/25 00:14:41;;;;;;;;;;;22.20;36.20;;;;;;5073764;28;19978;-64
2024/02/25 00:17:08;;;;;;;;;;;22.20;36.30;;;;;;5073783;28;20357;-65
2024/02/25 00:19:35;;;;;;;;;;;22.20;36.30;;;;;;5073791;28;20266;-64
2024/02/25 00:22:02;;;;;;;;;;;22.20;36.30;;;;;;5073680;28;20374;-65
2024/02/25 00:24:29;;;;;;;;;;;22.20;36.20;;;;;;5073563;28;19924;-64
2024/02/25 00:26:56;;;;;;;;;;;22.20;36.20;;;;;;5073374;28;19928;-64
2024/02/25 00:29:23;;;;;;;;;;;22.20;36.20;;;;;;5073958;28;20253;-64
2024/02/25 00:31:50;;;;;;;;;;;22.20;36.20;;;;;;5073960;28;19970;-64
2024/02/25 00:34:17;;;;;;;;;;;22.30;36.20;;;;;;5073575;28;20433;-64
2024/02/25 00:36:46;;;;;;;;;;;22.20;36.20;;;;;;5073528;28;20041;-64
2024/02/25 00:39:16;;;;;;;;;;;22.20;36.20;;;;;;5073513;28;19928;-64
2024/02/25 00:41:47;;;;;;;;;;;22.20;36.20;;;;;;5073755;28;19925;-64
2024/02/25 00:44:14;;;;;;;;;;;22.20;36.20;;;;;;5073488;28;19925;-64
2024/02/25 00:46:41;;;;;;;;;;;22.30;36.20;;;;;;5073384;28;20367;-64
2024/02/25 00:49:07;;;;;;;;;;;22.20;36.20;;;;;;5073177;28;20031;-64
2024/02/25 00:51:34;;;;;;;;;;;22.20;36.20;;;;;;5073400;28;19970;-64
2024/02/25 00:54:01;;;;;;;;;;;22.20;36.20;;;;;;5073539;28;19924;-65
2024/02/25 00:56:28;;;;;;;;;;;22.20;36.20;;;;;;5073102;28;19939;-64
2024/02/25 00:58:55;;;;;;;;;;;22.20;36.20;;;;;;5073164;28;20374;-66
2024/02/25 01:01:22;;;;;;;;;;;22.20;36.20;;;;;;5073121;28;19929;-64
2024/02/25 01:03:49;;;;;;;;;;;22.20;36.20;;;;;;5073249;28;19968;-64
2024/02/25 01:06:16;;;;;;;;;;;22.20;36.20;;;;;;5072918;28;20099;-64
2024/02/25 01:08:43;;;;;;;;;;;22.20;36.30;;;;;;5073292;28;19975;-64
2024/02/25 01:11:11;;;;;;;;;;;22.20;36.30;;;;;;5073140;28;20297;-65
2024/02/25 01:13:38;;;;;;;;;;;22.20;36.30;;;;;;5073520;28;19924;-64
2024/02/25 01:16:05;;;;;;;;;;;22.20;36.30;;;;;;5073086;28;20356;-65
2024/02/25 01:18:33;;;;;;;;;;;22.20;36.40;;;;;;5072830;28;19971;-64
2024/02/25 01:21:00;;;;;;;;;;;22.10;36.30;;;;;;5072596;28;20382;-64
2024/02/25 01:23:27;;;;;;;;;;;22.10;36.40;;;;;;5073033;28;19978;-64
2024/02/25 01:25:54;;;;;;;;;;;22.10;36.50;;;;;;5072970;28;20373;-64
2024/02/25 01:28:21;;;;;;;;;;;22.10;36.50;;;;;;5077042;28;20428;-64
2024/02/25 01:30:48;;;;;;;;;;;22.10;36.50;;;;;;5077331;28;20015;-64
2024/02/25 01:33:15;;;;;;;;;;;22.10;36.50;;;;;;5076786;28;19935;-64
2024/02/25 01:35:43;;;;;;;;;;;22.10;36.50;;;;;;5077111;28;19925;-64
2024/02/25 01:38:10;;;;;;;;;;;22.10;36.40;;;;;;5076858;28;19932;-65
2024/02/25 01:40:37;;;;;;;;;;;22.10;36.40;;;;;;5075717;28;20353;-64
2024/02/25 01:43:11;;;;;;;;;;;22.10;36.40;;;;;;5076919;28;19958;-65
2024/02/25 01:45:38;;;;;;;;;;;22.10;36.40;;;;;;5077028;28;19930;-64
2024/02/25 01:48:07;;;;;;;;;;;22.10;36.90;;;;;;5076861;28;19924;-65
2024/02/25 01:50:34;;;;;;;;;;;22.10;36.40;;;;;;5076998;28;20018;-64
2024/02/25 01:53:02;;;;;;;;;;;22.10;36.40;;;;;;5076779;28;20014;-64
2024/02/25 01:55:31;;;;;;;;;;;22.10;36.40;;;;;;5076558;28;20022;-64
2024/02/25 01:57:58;;;;;;;;;;;22.10;36.40;;;;;;5076903;28;19925;-64
2024/02/25 02:00:27;;;;;;;;;;;22.10;36.50;;;;;;5076393;28;19970;-64
2024/02/25 02:02:54;;;;;;;;;;;22.10;36.40;;;;;;5076217;28;19924;-64
2024/02/25 02:05:21;;;;;;;;;;;22.10;36.40;;;;;;5076625;28;20670;-64
2024/02/25 02:07:48;;;;;;;;;;;22.10;36.40;;;;;;5076465;28;19924;-65
2024/02/25 02:10:15;;;;;;;;;;;22.10;36.50;;;;;;5076519;28;20277;-64
2024/02/25 02:12:43;;;;;;;;;;;22.10;36.50;;;;;;5076359;28;19974;-64
2024/02/25 02:15:10;;;;;;;;;;;22.10;36.50;;;;;;5076198;28;20003;-64
2024/02/25 02:17:40;;;;;;;;;;;22.10;36.50;;;;;;5076544;28;20028;-64
2024/02/25 02:20:21;;;;;;;;;;;22.10;36.50;;;;;;5074973;28;19928;-64
2024/02/25 02:22:48;;;;;;;;;;;22.10;36.50;;;;;;5074722;28;19928;-64
2024/02/25 02:25:16;;;;;;;;;;;22.10;36.50;;;;;;5073497;28;20015;-64
2024/02/25 02:27:43;;;;;;;;;;;22.10;36.50;;;;;;5074772;28;19925;-64
2024/02/25 02:30:11;;;;;;;;;;;22.10;36.60;;;;;;5073700;28;19929;-65
2024/02/25 02:32:38;;;;;;;;;;;22.00;36.60;;;;;;5073927;28;20027;-64
2024/02/25 02:35:06;;;;;;;;;;;22.00;36.70;;;;;;5074691;28;19928;-64
2024/02/25 02:37:33;;;;;;;;;;;22.00;36.70;;;;;;5074092;28;19925;-65
2024/02/25 02:40:00;;;;;;;;;;;22.00;36.70;;;;;;5075097;28;20255;-64
2024/02/25 02:42:28;;;;;;;;;;;22.00;36.70;;;;;;5074806;28;19924;-64
2024/02/25 02:44:55;;;;;;;;;;;22.00;37.20;;;;;;5074797;28;19924;-64
2024/02/25 02:47:23;;;;;;;;;;;22.00;36.60;;;;;;5074406;28;19936;-65
2024/02/25 02:49:50;;;;;;;;;;;22.00;36.60;;;;;;5073710;28;19982;-64
2024/02/25 02:52:17;;;;;;;;;;;22.10;36.60;;;;;;5074274;28;19930;-65
2024/02/25 02:54:44;;;;;;;;;;;22.00;36.60;;;;;;5074467;28;19925;-65
2024/02/25 02:57:11;;;;;;;;;;;22.10;36.60;;;;;;5074036;28;20014;-64
2024/02/25 02:59:38;;;;;;;;;;;22.10;36.60;;;;;;5074314;28;19968;-64
2024/02/25 03:02:05;;;;;;;;;;;22.10;36.60;;;;;;5074591;28;19924;-64
2024/02/25 03:04:32;;;;;;;;;;;22.00;36.60;;;;;;5074388;28;19925;-65
2024/02/25 03:06:59;;;;;;;;;;;22.10;36.60;;;;;;5073726;28;20011;-64
2024/02/25 03:09:26;;;;;;;;;;;22.00;36.60;;;;;;5074262;28;19925;-64
2024/02/25 03:11:53;;;;;;;;;;;22.00;36.60;;;;;;5074295;28;19924;-65
2024/02/25 03:14:20;;;;;;;;;;;22.00;36.70;;;;;;5073240;28;20033;-65
2024/02/25 03:16:47;;;;;;;;;;;22.00;36.70;;;;;;5074233;28;19928;-65
2024/02/25 03:19:14;;;;;;;;;;;22.00;36.70;;;;;;5008160;28;1878700;-64
2024/02/25 03:21:44;;;;;;;;;;;22.00;36.70;;;;;;5073761;28;20381;-65
2024/02/25 03:24:11;;;;;;;;;;;22.00;36.70;;;;;;5075023;28;20370;-65
2024/02/25 03:26:38;;;;;;;;;;;22.00;36.70;;;;;;5075078;28;20405;-65
2024/02/25 03:29:06;;;;;;;;;;;22.00;36.70;;;;;;5075004;28;20035;-65
2024/02/25 03:31:34;;;;;;;;;;;22.00;36.70;;;;;;5073497;28;19925;-65
2024/02/25 03:34:01;;;;;;;;;;;22.00;36.70;;;;;;5074825;28;20031;-65
2024/02/25 03:36:29;;;;;;;;;;;22.00;36.70;;;;;;5075050;28;19930;-65
2024/02/25 03:38:56;;;;;;;;;;;21.90;36.80;;;;;;5074826;28;19967;-64
2024/02/25 03:41:23;;;;;;;;;;;21.90;36.80;;;;;;5074772;28;19934;-64
2024/02/25 03:43:49;;;;;;;;;;;21.90;36.90;;;;;;5074468;28;19925;-64
2024/02/25 03:46:16;;;;;;;;;;;21.90;36.90;;;;;;5074674;28;20278;-64
2024/02/25 03:48:43;;;;;;;;;;;21.90;36.80;;;;;;5073878;28;19968;-64
2024/02/25 03:51:11;;;;;;;;;;;21.90;36.80;;;;;;5074152;28;19931;-64
2024/02/25 03:53:38;;;;;;;;;;;21.90;36.80;;;;;;5073551;28;20309;-64
2024/02/25 03:56:05;;;;;;;;;;;21.90;36.80;;;;;;5074027;28;19976;-64
2024/02/25 03:58:32;;;;;;;;;;;22.00;36.80;;;;;;5074275;28;20028;-64
2024/02/25 04:00:59;;;;;;;;;;;21.90;36.80;;;;;;5073945;28;19929;-64
2024/02/25 04:03:26;;;;;;;;;;;21.90;36.80;;;;;;5074142;28;19929;-64
2024/02/25 04:05:53;;;;;;;;;;;22.00;36.80;;;;;;5074267;28;20381;-64
2024/02/25 04:08:20;;;;;;;;;;;22.00;36.80;;;;;;5074134;28;19939;-64
2024/02/25 04:10:47;;;;;;;;;;;21.90;36.80;;;;;;5073903;28;19925;-64
2024/02/25 04:13:14;;;;;;;;;;;22.00;36.80;;;;;;5073995;28;19932;-64
2024/02/25 04:15:42;;;;;;;;;;;22.00;36.80;;;;;;5074310;28;20350;-65
2024/02/25 04:18:08;;;;;;;;;;;22.00;36.80;;;;;;5073874;28;20019;-64
2024/02/25 04:20:36;;;;;;;;;;;21.90;36.80;;;;;;5074198;28;20336;-64
2024/02/25 04:23:03;;;;;;;;;;;21.90;36.80;;;;;;5072495;28;19929;-64
2024/02/25 04:25:30;;;;;;;;;;;21.90;36.80;;;;;;5073641;28;19924;-65
2024/02/25 04:27:57;;;;;;;;;;;21.90;36.80;;;;;;5073606;28;19924;-64
2024/02/25 04:30:25;;;;;;;;;;;21.90;36.80;;;;;;5073740;28;19970;-64
2024/02/25 04:32:52;;;;;;;;;;;21.90;36.80;;;;;;5072500;28;19939;-64
2024/02/25 04:35:19;;;;;;;;;;;21.90;36.80;;;;;;5073766;28;19932;-64
2024/02/25 04:37:45;;;;;;;;;;;21.90;36.80;;;;;;5073812;28;20278;-64
2024/02/25 04:40:13;;;;;;;;;;;21.90;36.70;;;;;;5073753;28;19925;-64
2024/02/25 04:42:39;;;;;;;;;;;22.00;36.60;;;;;;5073614;28;19924;-64
2024/02/25 04:45:08;;;;;;;;;;;21.90;36.50;;;;;;5073456;28;19932;-64
2024/02/25 04:47:35;;;;;;;;;;;22.00;36.50;;;;;;5073282;28;19931;-64
2024/02/25 04:50:03;;;;;;;;;;;22.00;36.40;;;;;;5073473;28;20400;-64
2024/02/25 04:52:30;;;;;;;;;;;21.90;36.40;;;;;;5072395;28;19924;-64
2024/02/25 04:54:57;;;;;;;;;;;21.90;36.40;;;;;;5073490;28;19990;-65
2024/02/25 04:57:24;;;;;;;;;;;21.90;36.40;;;;;;5073185;28;19924;-64
2024/02/25 04:59:50;;;;;;;;;;;21.90;36.40;;;;;;5073536;28;19932;-64
2024/02/25 05:02:18;;;;;;;;;;;21.90;36.40;;;;;;5073104;28;19928;-64
2024/02/25 05:04:44;;;;;;;;;;;21.90;36.30;;;;;;5073447;28;19924;-65
2024/02/25 05:07:12;;;;;;;;;;;21.90;36.30;;;;;;5072748;28;19931;-64
2024/02/25 05:09:39;;;;;;;;;;;21.90;36.20;;;;;;5073176;28;19924;-65
2024/02/25 05:12:06;;;;;;;;;;;21.90;36.20;;;;;;5073173;28;20007;-65
2024/02/25 05:14:33;;;;;;;;;;;21.90;36.10;;;;;;5073494;28;19928;-64
2024/02/25 05:17:00;;;;;;;;;;;21.90;36.10;;;;;;5073130;28;20331;-64
2024/02/25 05:19:27;;;;;;;;;;;21.90;36.10;;;;;;5072048;28;19925;-64
2024/02/25 05:21:54;;;;;;;;;;;21.90;36.00;;;;;;5073387;28;19931;-64
2024/02/25 05:24:21;;;;;;;;;;;22.00;36.00;;;;;;5073278;28;19938;-64
2024/02/25 05:26:49;;;;;;;;;;;22.00;36.00;;;;;;5073110;28;20348;-65
2024/02/25 05:29:16;;;;;;;;;;;22.00;36.00;;;;;;5072960;28;19928;-64
2024/02/25 05:31:42;;;;;;;;;;;22.00;36.00;;;;;;5073110;28;20023;-65
2024/02/25 05:34:09;;;;;;;;;;;21.90;35.90;;;;;;5073022;28;20374;-64
2024/02/25 05:36:37;;;;;;;;;;;22.00;36.00;;;;;;5072776;28;19930;-64
2024/02/25 05:39:04;;;;;;;;;;;21.90;35.90;;;;;;5072616;28;20442;-64
2024/02/25 05:41:31;;;;;;;;;;;22.00;35.90;;;;;;5073203;28;19964;-64
2024/02/25 05:43:58;;;;;;;;;;;21.90;35.90;;;;;;5072833;28;20369;-64
2024/02/25 05:46:25;;;;;;;;;;;22.00;35.90;;;;;;5072752;28;20453;-64
2024/02/25 05:48:52;;;;;;;;;;;22.00;35.90;;;;;;5072654;28;19924;-64
2024/02/25 05:51:19;;;;;;;;;;;22.00;35.90;;;;;;5072646;28;20370;-64
2024/02/25 05:53:47;;;;;;;;;;;22.00;35.90;;;;;;5073102;28;20324;-65
2024/02/25 05:56:14;;;;;;;;;;;21.90;35.90;;;;;;5072886;28;19951;-64
2024/02/25 05:58:42;;;;;;;;;;;21.90;36.00;;;;;;5072694;28;19972;-64
2024/02/25 06:01:09;;;;;;;;;;;21.90;36.00;;;;;;5072632;28;19928;-64
2024/02/25 06:03:36;;;;;;;;;;;21.90;36.00;;;;;;5073136;28;20034;-64
2024/02/25 06:06:03;;;;;;;;;;;21.90;36.60;;;;;;5073038;28;19925;-64
2024/02/25 06:08:30;;;;;;;;;;;21.90;36.00;;;;;;5072843;28;19929;-64
2024/02/25 06:10:57;;;;;;;;;;;21.90;35.90;;;;;;5072487;28;19925;-64
2024/02/25 06:13:24;;;;;;;;;;;22.00;35.90;;;;;;5075071;28;19930;-64
2024/02/25 06:15:51;;;;;;;;;;;22.00;35.90;;;;;;5076224;28;19959;-65
2024/02/25 06:18:18;;;;;;;;;;;22.00;35.90;;;;;;5075930;28;20027;-64
2024/02/25 06:20:45;;;;;;;;;;;22.00;35.90;;;;;;5076225;28;19976;-64
2024/02/25 06:23:12;;;;;;;;;;;22.10;35.90;;;;;;5076084;28;19924;-64
2024/02/25 06:25:38;;;;;;;;;;;22.10;35.90;;;;;;5076729;28;19929;-64
2024/02/25 06:28:05;;;;;;;;;;;22.20;35.90;;;;;;5075817;28;19978;-64
2024/02/25 06:30:32;;;;;;;;;;;22.10;35.80;;;;;;5076169;28;20285;-64
2024/02/25 06:33:02;;;;;;;;;;;22.10;35.80;;;;;;5075581;28;19925;-64
2024/02/25 06:35:29;;;;;;;;;;;22.10;35.80;;;;;;5076051;28;19935;-64
2024/02/25 06:37:58;;;;;;;;;;;22.20;35.80;;;;;;5075805;28;19932;-64
2024/02/25 06:40:25;;;;;;;;;;;22.10;35.70;;;;;;5076296;28;20278;-64
2024/02/25 06:42:52;;;;;;;;;;;22.20;35.70;;;;;;5076026;28;19971;-65
2024/02/25 06:45:19;;;;;;;;;;;22.20;35.70;;;;;;5075581;28;19947;-64
2024/02/25 06:47:46;;;;;;;;;;;22.20;35.70;;;;;;5075791;28;19970;-64
2024/02/25 06:50:14;;;;;;;;;;;22.30;35.70;;;;;;5075869;28;19931;-64
2024/02/25 06:52:41;;;;;;;;;;;22.30;35.70;;;;;;5075696;28;19970;-64
2024/02/25 06:55:08;;;;;;;;;;;22.20;35.60;;;;;;5075409;28;20359;-64
2024/02/25 06:57:35;;;;;;;;;;;22.30;35.60;;;;;;5075516;28;19931;-64
2024/02/25 07:00:05;;;;;;;;;;;22.30;35.60;;;;;;5075762;28;19946;-64
2024/02/25 07:02:33;;;;;;;;;;;22.30;35.60;;;;;;5075384;28;20019;-64
2024/02/25 07:05:00;;;;;;;;;;;22.30;35.60;;;;;;5075263;28;19935;-64
2024/02/25 07:07:26;;;;;;;;;;;22.30;35.60;;;;;;5075151;28;19931;-64
2024/02/25 07:09:57;;;;;;;;;;;22.30;35.60;;;;;;5075428;28;19925;-64
2024/02/25 07:12:24;;;;;;;;;;;22.30;35.60;;;;;;5075001;28;19924;-64
2024/02/25 07:14:52;;;;;;;;;;;22.30;35.50;;;;;;5075425;28;19963;-64
2024/02/25 07:17:20;;;;;;;;;;;22.40;35.60;;;;;;5073583;28;20335;-64
2024/02/25 07:19:47;;;;;;;;;;;22.40;35.60;;;;;;5074763;28;19936;-64
2024/02/25 07:22:14;;;;;;;;;;;22.40;35.60;;;;;;5075034;28;20416;-64
2024/02/25 07:24:41;;;;;;;;;;;22.40;35.60;;;;;;5073925;28;20446;-64
2024/02/25 07:27:08;;;;;;;;;;;22.40;35.60;;;;;;5074604;28;19934;-64
2024/02/25 07:29:36;;;;;;;;;;;22.40;35.60;;;;;;5074945;28;19924;-64
2024/02/25 07:32:03;;;;;;;;;;;22.50;35.60;;;;;;5074744;28;19924;-65
2024/02/25 07:34:30;;;;;;;;;;;22.50;35.50;;;;;;5074645;28;20381;-64
2024/02/25 07:36:57;;;;;;;;;;;22.50;35.50;;;;;;5074258;28;19978;-64
2024/02/25 07:39:24;;;;;;;;;;;22.50;35.50;;;;;;5072970;28;19932;-64
2024/02/25 07:41:51;;;;;;;;;;;22.60;35.60;;;;;;5074262;28;19928;-64
2024/02/25 07:44:18;;;;;;;;;;;22.60;35.60;;;;;;5074800;28;19924;-64
2024/02/25 07:46:45;;;;;;;;;;;22.60;36.10;;;;;;5073961;28;19932;-64
2024/02/25 07:49:12;;;;;;;;;;;22.70;35.60;;;;;;5073098;28;19932;-64
2024/02/25 07:51:39;;;;;;;;;;;22.70;35.60;;;;;;5074658;28;20045;-64
2024/02/25 07:54:06;;;;;;;;;;;22.70;35.60;;;;;;5074383;28;19925;-65
2024/02/25 07:56:33;;;;;;;;;;;22.80;35.50;;;;;;5074106;28;19967;-64
2024/02/25 07:59:00;;;;;;;;;;;22.80;35.50;;;;;;5074106;28;19928;-64
2024/02/25 08:01:27;;;;;;;;;;;22.80;35.50;;;;;;5074196;28;20439;-64
2024/02/25 08:03:54;;;;;;;;;;;22.90;35.60;;;;;;5074198;28;20028;-64
2024/02/25 08:06:25;;;;;;;;;;;22.90;35.60;;;;;;5073939;28;20389;-64
2024/02/25 08:08:53;;;;;;;;;;;22.90;35.60;;;;;;5073850;28;19971;-64
2024/02/25 08:11:20;;;;;;;;;;;23.00;35.70;;;;;;5072644;28;19935;-64
2024/02/25 08:13:47;;;;;;;;;;;23.00;35.70;;;;;;5073940;28;19931;-64
2024/02/25 08:16:14;;;;;;;;;;;23.00;35.70;;;;;;5074122;28;19998;-64
2024/02/25 08:18:47;;;;;;;;;;;23.00;35.70;;;;;;5073738;28;19930;-64
2024/02/25 08:21:15;;;;;;;;;;;23.00;35.70;;;;;;5073689;28;20027;-64
2024/02/25 08:23:43;;;;;;;;;;;23.10;35.70;;;;;;5074020;28;19931;-64
2024/02/25 08:26:11;;;;;;;;;;;23.10;35.70;;;;;;5073636;28;19928;-64
2024/02/25 08:28:38;;;;;;;;;;;23.10;35.60;;;;;;5073502;28;19986;-64
2024/02/25 08:31:05;;;;;;;;;;;23.20;35.60;;;;;;5073384;28;20396;-64
2024/02/25 08:33:32;;;;;;;;;;;23.20;35.60;;;;;;5073536;28;20377;-64
2024/02/25 08:36:00;;;;;;;;;;;23.30;35.60;;;;;;5073277;28;19935;-64
2024/02/25 08:38:27;;;;;;;;;;;23.30;35.50;;;;;;5073419;28;19924;-64
2024/02/25 08:40:55;;;;;;;;;;;23.30;35.40;;;;;;5073744;28;19932;-64
2024/02/25 08:43:22;;;;;;;;;;;23.40;35.40;;;;;;5073656;28;19924;-64
2024/02/25 08:45:48;;;;;;;;;;;23.40;35.30;;;;;;5073694;28;19932;-64
2024/02/25 08:48:15;;;;;;;;;;;23.40;35.30;;;;;;5073301;28;19959;-64
2024/02/25 08:50:43;;;;;;;;;;;23.50;35.20;;;;;;5073395;28;19931;-64
2024/02/25 08:53:10;;;;;;;;;;;23.50;35.20;;;;;;5073092;28;20452;-64
2024/02/25 08:55:36;;;;;;;;;;;23.50;35.20;;;;;;5073842;28;19924;-64
2024/02/25 08:58:04;;;;;;;;;;;23.60;35.30;;;;;;5073296;28;19924;-64
2024/02/25 09:00:31;;;;;;;;;;;23.60;35.20;;;;;;5073297;28;20026;-64
2024/02/25 09:02:59;;;;;;;;;;;23.60;35.20;;;;;;5072108;28;20007;-64
2024/02/25 09:05:26;;;;;;;;;;;23.60;35.20;;;;;;5073611;28;19924;-64
2024/02/25 09:07:54;;;;;;;;;;;23.60;35.30;;;;;;5072905;28;19931;-64
2024/02/25 09:10:21;;;;;;;;;;;23.70;35.30;;;;;;5073058;28;19924;-64
2024/02/25 09:12:48;;;;;;;;;;;23.70;35.30;;;;;;5071942;28;19925;-64
2024/02/25 09:15:19;;;;;;;;;;;23.70;35.30;;;;;;5073242;28;19937;-65
2024/02/25 09:17:47;;;;;;;;;;;23.70;35.30;;;;;;5073434;28;19924;-64
2024/02/25 09:20:14;;;;;;;;;;;23.70;35.20;;;;;;5073088;28;20401;-64
2024/02/25 09:22:41;;;;;;;;;;;23.80;35.20;;;;;;5073066;28;20362;-64
2024/02/25 09:25:08;;;;;;;;;;;23.80;35.10;;;;;;5073248;28;20289;-64
2024/02/25 09:27:35;;;;;;;;;;;23.90;35.10;;;;;;5072952;28;20015;-64
2024/02/25 09:30:02;;;;;;;;;;;23.90;34.90;;;;;;5072957;28;20456;-64
2024/02/25 09:32:30;;;;;;;;;;;24.00;34.80;;;;;;5072862;28;19972;-64
2024/02/25 09:34:57;;;;;;;;;;;24.00;34.70;;;;;;5073110;28;19925;-64
2024/02/25 09:37:24;;;;;;;;;;;24.10;34.70;;;;;;5072906;28;20020;-65
2024/02/25 09:39:51;;;;;;;;;;;24.10;34.60;;;;;;5072877;28;19925;-64
2024/02/25 09:42:24;;;;;;;;;;;24.20;34.50;;;;;;5072884;28;19924;-64
2024/02/25 09:44:52;;;;;;;;;;;24.20;34.40;;;;;;5072617;28;19924;-64
2024/02/25 09:47:20;;;;;;;;;;;24.20;34.20;;;;;;5073794;28;19928;-67
2024/02/25 09:49:48;;;;;;;;;;;24.30;34.20;;;;;;5077051;28;20032;-64
2024/02/25 09:52:16;;;;;;;;;;;24.30;34.10;;;;;;5076822;28;20315;-64
2024/02/25 09:54:45;;;;;;;;;;;24.30;34.00;;;;;;5076622;28;20366;-65
2024/02/25 09:57:12;;;;;;;;;;;24.30;33.90;;;;;;5076269;28;19975;-64
2024/02/25 09:59:40;;;;;;;;;;;24.40;33.80;;;;;;5075477;28;20344;-64
2024/02/25 10:02:08;;;;;;;;;;;24.40;33.70;;;;;;5076385;28;19971;-65
2024/02/25 10:04:36;;;;;;;;;;;24.40;33.70;;;;;;5076542;28;19970;-64
2024/02/25 10:07:04;;;;;;;;;;;24.40;33.60;;;;;;5076168;28;19925;-65
2024/02/25 10:09:31;;;;;;;;;;;24.50;33.60;;;;;;5076459;28;19929;-65
2024/02/25 10:11:58;;;;;;;;;;;24.50;33.50;;;;;;5076605;28;20015;-65
2024/02/25 10:14:25;;;;;;;;;;;24.50;33.50;;;;;;5076604;28;19946;-65
2024/02/25 10:17:00;;;;;;;;;;;24.50;33.40;;;;;;5075991;28;19931;-65
2024/02/25 10:19:27;;;;;;;;;;;24.50;33.90;;;;;;5076025;28;19979;-65
2024/02/25 10:22:14;;;;;;;;;;;24.50;33.30;;;;;;5076388;28;19924;-64
2024/02/25 10:24:43;;;;;;;;;;;24.60;33.30;;;;;;5076447;28;19930;-65
2024/02/25 10:27:11;;;;;;;;;;;24.60;33.40;;;;;;5075595;28;19932;-65
2024/02/25 10:29:56;;;;;;;;;;;24.60;33.40;;;;;;5076268;28;19960;-64
2024/02/25 10:32:30;;;;;;;;;;;24.60;33.30;;;;;;5075703;28;19925;-65
2024/02/25 10:34:58;;;;;;;;;;;24.60;33.20;;;;;;5074854;28;19925;-64
2024/02/25 10:37:26;;;;;;;;;;;24.60;33.20;;;;;;5076160;28;19925;-64
2024/02/25 10:39:54;;;;;;;;;;;24.60;33.20;;;;;;5076126;28;19931;-65
2024/02/25 10:42:25;;;;;;;;;;;24.70;33.20;;;;;;5075680;28;20381;-65
2024/02/25 10:44:56;;;;;;;;;;;24.70;33.10;;;;;;5075931;28;20379;-64
2024/02/25 10:47:23;;;;;;;;;;;24.70;33.00;;;;;;5075868;28;19924;-64
2024/02/25 10:49:53;;;;;;;;;;;24.80;32.90;;;;;;5075471;28;20015;-65
2024/02/25 10:52:21;;;;;;;;;;;24.70;32.90;;;;;;5076068;28;20286;-64
2024/02/25 10:54:49;;;;;;;;;;;24.80;32.90;;;;;;5075606;28;19978;-65
2024/02/25 10:57:18;;;;;;;;;;;24.80;32.80;;;;;;5074185;28;19928;-65
2024/02/25 10:59:47;;;;;;;;;;;24.80;32.80;;;;;;5075222;28;19924;-65
2024/02/25 11:02:18;;;;;;;;;;;24.80;32.70;;;;;;5075574;28;19978;-64
2024/02/25 11:04:45;;;;;;;;;;;24.80;32.70;;;;;;5075857;28;19924;-65
2024/02/25 11:07:13;;;;;;;;;;;24.80;32.70;;;;;;5074929;28;19978;-64
2024/02/25 11:09:41;;;;;;;;;;;24.80;32.70;;;;;;5075202;28;19924;-65
2024/02/25 11:12:14;;;;;;;;;;;24.80;32.60;;;;;;5075108;28;19925;-65
2024/02/25 11:14:53;;;;;;;;;;;24.80;32.60;;;;;;5075621;28;19967;-65
2024/02/25 11:17:24;;;;;;;;;;;24.80;32.70;;;;;;5074194;28;19954;-64
2024/02/25 11:19:56;;;;;;;;;;;24.80;32.60;;;;;;5073966;28;20348;-65
2024/02/25 11:22:40;;;;;;;;;;;24.80;32.70;;;;;;5075313;28;20367;-64
2024/02/25 11:25:26;;;;;;;;;;;24.70;32.60;;;;;;5074802;28;19940;-64
2024/02/25 11:27:54;;;;;;;;;;;24.70;32.60;;;;;;5074604;28;19924;-65
2024/02/25 11:30:22;;;;;;;;;;;24.70;32.60;;;;;;5073988;28;19925;-64
2024/02/25 11:32:49;;;;;;;;;;;24.70;32.60;;;;;;5074675;28;19924;-64
2024/02/25 11:35:18;;;;;;;;;;;24.70;32.60;;;;;;5075265;28;19935;-64
2024/02/25 11:37:48;;;;;;;;;;;24.70;32.60;;;;;;5074711;28;20378;-65
2024/02/25 11:40:15;;;;;;;;;;;24.80;32.70;;;;;;5075001;28;19924;-65
2024/02/25 11:42:42;;;;;;;;;;;24.70;32.60;;;;;;5074710;28;19925;-65
2024/02/25 11:45:10;;;;;;;;;;;24.70;32.60;;;;;;5074558;28;19974;-65
2024/02/25 11:47:37;;;;;;;;;;;24.80;32.70;;;;;;5074507;28;20011;-65
2024/02/25 11:50:07;;;;;;;;;;;24.70;32.60;;;;;;5074427;28;19924;-65
2024/02/25 11:52:34;;;;;;;;;;;24.70;32.60;;;;;;5074206;28;20027;-65
2024/02/25 11:55:05;;;;;;;;;;;24.70;32.60;;;;;;5074217;28;19925;-65
2024/02/25 11:57:32;;;;;;;;;;;24.70;32.60;;;;;;5074684;28;19925;-65
2024/02/25 11:59:59;;;;;;;;;;;24.70;32.60;;;;;;5074230;28;20023;-65
2024/02/25 12:02:26;;;;;;;;;;;24.70;32.60;;;;;;5074697;28;19924;-65
2024/02/25 12:04:54;;;;;;;;;;;24.70;32.60;;;;;;5073264;28;19924;-65
2024/02/25 12:07:21;;;;;;;;;;;24.70;32.60;;;;;;5072834;28;19928;-65
2024/02/25 12:09:48;;;;;;;;;;;24.70;32.60;;;;;;5073325;28;19964;-65
2024/02/25 12:12:15;;;;;;;;;;;24.70;32.60;;;;;;5073943;28;19929;-65
2024/02/25 12:14:42;;;;;;;;;;;24.70;32.50;;;;;;5074238;28;19931;-64
2024/02/25 12:17:12;;;;;;;;;;;24.70;32.50;;;;;;5073465;28;19935;-65
2024/02/25 12:19:40;;;;;;;;;;;24.80;32.60;;;;;;5073974;28;19960;-64
2024/02/25 12:22:07;;;;;;;;;;;24.80;32.50;;;;;;5073717;28;19924;-64
2024/02/25 12:24:34;;;;;;;;;;;24.80;32.50;;;;;;5074156;28;19951;-64
2024/02/25 12:27:01;;;;;;;;;;;24.80;32.50;;;;;;5070946;28;19933;-64
2024/02/25 12:29:28;;;;;;;;;;;24.80;32.40;;;;;;5065099;28;19972;-64
2024/02/25 12:31:56;;;;;;;;;;;24.80;32.50;;;;;;5073227;28;19925;-64
2024/02/25 12:34:27;;;;;;;;;;;24.80;32.40;;;;;;5073571;28;20382;-64
2024/02/25 12:36:56;;;;;;;;;;;24.80;32.50;;;;;;5073274;28;19930;-64
2024/02/25 12:39:23;;;;;;;;;;;24.80;32.40;;;;;;5072794;28;19931;-64
2024/02/25 12:41:54;;;;;;;;;;;24.80;32.40;;;;;;5073834;28;19986;-65
2024/02/25 12:44:21;;;;;;;;;;;24.80;33.00;;;;;;5073411;28;20433;-64
2024/02/25 12:46:47;;;;;;;;;;;24.80;32.50;;;;;;5073831;28;19978;-64
2024/02/25 12:49:15;;;;;;;;;;;24.80;32.50;;;;;;5073381;28;19929;-64
2024/02/25 12:51:43;;;;;;;;;;;24.80;32.50;;;;;;5073723;28;19977;-64
2024/02/25 12:54:10;;;;;;;;;;;24.80;32.50;;;;;;5073999;28;19978;-65
2024/02/25 12:56:38;;;;;;;;;;;24.80;32.50;;;;;;5073568;28;19924;-64
2024/02/25 12:59:05;;;;;;;;;;;24.80;32.40;;;;;;5073179;28;19924;-65
2024/02/25 13:01:32;;;;;;;;;;;24.80;32.40;;;;;;5072127;28;19963;-64
2024/02/25 13:04:03;;;;;;;;;;;24.80;32.40;;;;;;5073529;28;19967;-65
2024/02/25 13:06:31;;;;;;;;;;;24.90;32.40;;;;;;5073179;28;19932;-64
2024/02/25 13:08:58;;;;;;;;;;;24.90;32.30;;;;;;5073373;28;19979;-65
2024/02/25 13:11:25;;;;;;;;;;;24.90;32.30;;;;;;5073287;28;19952;-64
2024/02/25 13:13:52;;;;;;;;;;;24.90;32.20;;;;;;5073193;28;19978;-66
2024/02/25 13:16:19;;;;;;;;;;;24.90;32.20;;;;;;5073061;28;19925;-65
2024/02/25 13:18:46;;;;;;;;;;;24.90;32.20;;;;;;5072944;28;20016;-64
2024/02/25 13:21:13;;;;;;;;;;;24.90;32.20;;;;;;5074028;28;19964;-64
2024/02/25 13:23:40;;;;;;;;;;;24.90;32.20;;;;;;5077274;28;19924;-64
2024/02/25 13:26:09;;;;;;;;;;;24.90;32.20;;;;;;5077417;28;20332;-65
2024/02/25 13:28:37;;;;;;;;;;;24.90;32.20;;;;;;5077062;28;20393;-64
2024/02/25 13:31:04;;;;;;;;;;;24.90;32.20;;;;;;5077387;28;19978;-65
2024/02/25 13:33:31;;;;;;;;;;;24.90;32.20;;;;;;5077439;28;20013;-64
2024/02/25 13:35:59;;;;;;;;;;;24.90;32.20;;;;;;5077270;28;19947;-65
2024/02/25 13:38:26;;;;;;;;;;;24.90;32.20;;;;;;5076833;28;19975;-64
2024/02/25 13:40:53;;;;;;;;;;;24.80;32.10;;;;;;5076755;28;20384;-64
2024/02/25 13:43:20;;;;;;;;;;;24.80;32.10;;;;;;5077094;28;20286;-65
2024/02/25 13:45:49;;;;;;;;;;;24.90;32.20;;;;;;5076618;28;19925;-64
2024/02/25 13:48:22;;;;;;;;;;;24.80;32.10;;;;;;5075803;28;19925;-64
2024/02/25 13:50:50;;;;;;;;;;;24.80;32.10;;;;;;5076940;28;19931;-64
2024/02/25 13:53:19;;;;;;;;;;;24.80;32.10;;;;;;5076933;28;19929;-65
2024/02/25 13:55:47;;;;;;;;;;;24.80;32.10;;;;;;5076611;28;19925;-64
2024/02/25 13:58:14;;;;;;;;;;;24.90;32.20;;;;;;5076724;28;19929;-65
2024/02/25 14:00:41;;;;;;;;;;;24.90;32.20;;;;;;5076664;28;19971;-64
2024/02/25 14:03:08;;;;;;;;;;;24.90;32.20;;;;;;5076552;28;19929;-65
2024/02/25 14:05:39;;;;;;;;;;;24.90;32.20;;;;;;5076756;28;19932;-64
2024/02/25 14:08:06;;;;;;;;;;;24.90;32.20;;;;;;5076646;28;19924;-65
2024/02/25 14:10:33;;;;;;;;;;;24.90;32.20;;;;;;5076574;28;19924;-64
2024/02/25 14:13:00;;;;;;;;;;;24.90;32.20;;;;;;5076196;28;19983;-64
2024/02/25 14:15:27;;;;;;;;;;;24.90;32.20;;;;;;5076821;28;20309;-64
2024/02/25 14:17:57;;;;;;;;;;;24.90;32.20;;;;;;5075877;28;19924;-64